Time;durP1;ratioP1;P1;durP2;ratioP2;P2;SDS_P1;SDS_P2;PMS_P1;PMS_P2;Temp;Humidity;BMP_temperature;BMP_pressure;BME280_temperature;BME280_humidity;BME280_pressure;Samples;Min_cycle;Max_cycle;Signal;HPM_P1;HPM_P2
2021/12/26 00:00:25;;;;;;;5.40;3.20;;;;;;;-2.08;75.03;100782.44;5071166;28;20093;-87
2021/12/26 00:02:50;;;;;;;4.93;3.08;;;;;;;-2.15;74.63;100768.84;5071298;28;20062;-87
2021/12/26 00:05:16;;;;;;;5.22;3.13;;;;;;;-2.18;74.85;100761.19;5089368;28;20028;-85
2021/12/26 00:07:42;;;;;;;6.38;3.40;;;;;;;-2.14;74.65;100770.53;5074841;28;20039;-85
2021/12/26 00:10:10;;;;;;;5.47;3.03;;;;;;;-2.16;74.57;100780.03;5089180;28;20063;-80
2021/12/26 00:12:36;;;;;;;6.32;3.28;;;;;;;-2.16;74.73;100777.44;5089222;28;20031;-85
2021/12/26 00:15:03;;;;;;;5.80;3.10;;;;;;;-2.26;74.60;100760.50;5109996;28;20222;-85
2021/12/26 00:17:28;;;;;;;6.93;3.47;;;;;;;-2.20;74.97;100770.69;5108890;28;20045;-85
2021/12/26 00:19:54;;;;;;;6.28;3.15;;;;;;;-2.18;74.76;100762.91;5109891;28;20023;-85
2021/12/26 00:22:22;;;;;;;6.72;3.05;;;;;;;-2.22;74.21;100765.56;5090778;28;20132;-85
2021/12/26 00:24:47;;;;;;;6.65;3.33;;;;;;;-2.22;73.83;100759.56;5103403;28;20488;-85
2021/12/26 00:27:14;;;;;;;4.47;3.03;;;;;;;-2.24;74.67;100751.88;5091483;28;20029;-85
2021/12/26 00:29:39;;;;;;;4.65;3.00;;;;;;;-2.23;74.65;100750.13;5109678;28;20114;-85
2021/12/26 00:32:06;;;;;;;6.18;3.10;;;;;;;-2.27;75.07;100748.50;5090608;28;20131;-85
2021/12/26 00:34:32;;;;;;;6.28;3.13;;;;;;;-2.26;75.11;100753.63;5109440;28;20421;-85
2021/12/26 00:37:07;;;;;;;8.25;3.30;;;;;;;-2.28;74.62;100747.66;5091786;28;20046;-86
2021/12/26 00:39:34;;;;;;;5.25;3.20;;;;;;;-2.33;75.10;100740.94;5091687;28;20383;-86
2021/12/26 00:42:00;;;;;;;7.63;3.30;;;;;;;-2.28;75.47;100751.97;5104297;28;20027;-86
2021/12/26 00:44:26;;;;;;;5.97;3.33;;;;;;;-2.30;75.67;100743.44;5109685;28;20114;-86
2021/12/26 00:46:55;;;;;;;4.18;3.08;;;;;;;-2.30;75.57;100743.44;5110871;28;20027;-85
2021/12/26 00:49:24;;;;;;;5.32;3.45;;;;;;;-2.35;75.45;100740.13;5110630;28;20027;-85
2021/12/26 00:51:59;;;;;;;5.70;3.30;;;;;;;-2.34;75.52;100741.81;5091756;28;20138;-87
2021/12/26 00:54:25;;;;;;;5.10;3.63;;;;;;;-2.33;75.54;100754.66;5092168;28;20030;-85
2021/12/26 00:56:50;;;;;;;5.68;3.35;;;;;;;-2.34;75.31;100746.97;5109073;28;20106;-85
2021/12/26 00:59:16;;;;;;;7.43;3.47;;;;;;;-2.35;75.37;100753.84;5090003;28;20111;-85
2021/12/26 01:01:41;;;;;;;7.28;3.80;;;;;;;-2.34;76.07;100752.13;5091371;28;20028;-85
2021/12/26 01:04:07;;;;;;;5.75;3.53;;;;;;;-2.33;75.79;100754.66;5091325;28;20028;-85
2021/12/26 01:06:33;;;;;;;6.13;3.60;;;;;;;-2.37;75.29;100752.19;5089425;28;20024;-85
2021/12/26 01:08:58;;;;;;;7.13;3.40;;;;;;;-2.38;75.97;100750.50;5091977;28;20039;-84
2021/12/26 01:11:38;;;;;;;4.97;3.47;;;;;;;-2.35;75.98;100750.44;5075950;28;20020;-85
2021/12/26 01:14:07;;;;;;;6.55;3.63;;;;;;;-2.37;75.37;100757.34;5091459;28;20076;-85
2021/12/26 01:16:33;;;;;;;5.95;3.30;;;;;;;-2.33;75.54;100756.38;5094230;28;20104;-85
2021/12/26 01:19:09;;;;;;;6.80;3.53;;;;;;;-2.31;75.62;100757.19;5075282;28;20118;-84
2021/12/26 01:21:37;;;;;;;5.60;3.60;;;;;;;-2.33;75.79;100743.50;5092012;28;20016;-79
2021/12/26 01:24:06;;;;;;;11.63;4.13;;;;;;;-2.30;75.45;100758.91;5074348;28;20038;-80
2021/12/26 01:26:33;;;;;;;5.70;3.50;;;;;;;-2.30;76.48;100748.59;5091431;28;20410;-79
2021/12/26 01:28:59;;;;;;;6.95;3.72;;;;;;;-2.28;75.51;100752.81;5074192;28;20032;-79
2021/12/26 01:31:24;;;;;;;6.82;3.85;;;;;;;-2.26;75.75;100751.06;5074428;28;20012;-79
2021/12/26 01:33:57;;;;;;;6.07;3.72;;;;;;;-2.26;75.61;100745.91;5108947;28;20042;-79
2021/12/26 01:36:23;;;;;;;6.57;3.90;;;;;;;-2.26;75.40;100738.19;5112372;28;20068;-79
2021/12/26 01:38:49;;;;;;;6.72;3.60;;;;;;;-2.24;75.51;100743.28;5112764;28;20456;-79
2021/12/26 01:41:17;;;;;;;6.15;3.88;;;;;;;-2.23;75.97;100740.69;5111805;28;20047;-79
2021/12/26 01:43:46;;;;;;;5.75;3.72;;;;;;;-2.23;75.44;100735.53;5093876;28;20030;-80
2021/12/26 01:46:13;;;;;;;6.00;3.90;;;;;;;-2.21;75.93;100744.06;5112333;28;20032;-80
2021/12/26 01:48:39;;;;;;;5.72;4.00;;;;;;;-2.19;76.37;100745.75;5111502;28;20103;-80
2021/12/26 01:51:04;;;;;;;7.45;3.83;;;;;;;-2.21;76.21;100738.06;5107679;28;20106;-79
2021/12/26 01:53:36;;;;;;;10.43;4.13;;;;;;;-2.20;75.84;100737.19;5112667;28;20049;-79
2021/12/26 01:56:09;;;;;;;7.18;3.90;;;;;;;-2.19;76.61;100738.03;5112688;28;20031;-79
2021/12/26 01:58:36;;;;;;;6.15;3.88;;;;;;;-2.15;76.17;100743.06;5094380;28;20130;-79
2021/12/26 02:01:08;;;;;;;6.32;4.25;;;;;;;-2.17;75.98;100739.69;5094921;28;20507;-82
2021/12/26 02:03:34;;;;;;;;;;;;;;;-2.06;77.48;100742.00;5094659;28;20464;-87
2021/12/26 02:06:00;;;;;;;6.18;3.95;;;;;;;-2.11;76.67;100744.69;5093058;28;19914;-84
2021/12/26 02:08:26;;;;;;;8.23;3.67;;;;;;;-2.10;76.09;100737.81;5074073;28;20040;-84
2021/12/26 02:10:51;;;;;;;7.05;4.32;;;;;;;-2.10;76.90;100735.22;5093310;28;20417;-84
2021/12/26 02:13:17;;;;;;;9.02;4.10;;;;;;;-2.08;76.89;100734.31;5080014;28;20042;-80
2021/12/26 02:15:42;;;;;;;7.13;4.07;;;;;;;-2.07;76.44;100741.16;5093830;28;20020;-85
2021/12/26 02:18:09;;;;;;;8.50;4.43;;;;;;;-2.04;77.23;100735.06;5112654;28;20024;-79
2021/12/26 02:23:22;;;;;;;9.77;4.10;;;;;;;-2.02;76.49;100739.31;5088662;28;20057;-84
2021/12/26 02:28:22;;;;;;;7.22;4.30;;;;;;;-2.00;76.44;100729.84;5111493;28;20051;-84
2021/12/26 02:30:49;;;;;;;7.93;4.18;;;;;;;-1.99;77.06;100728.94;5093199;28;20030;-85
2021/12/26 02:33:16;;;;;;;8.50;4.40;;;;;;;-2.01;76.02;100714.38;5111822;28;20636;-84
2021/12/26 02:35:46;;;;;;;7.55;4.28;;;;;;;-1.97;76.58;100721.19;5093578;28;20468;-84
2021/12/26 02:38:15;;;;;;;7.60;4.20;;;;;;;-1.98;76.67;100725.50;5105573;28;20448;-85
2021/12/26 02:40:43;;;;;;;7.28;4.40;;;;;;;-1.97;75.75;100719.44;5091641;28;20024;-85
2021/12/26 02:43:10;;;;;;;7.18;4.53;;;;;;;-1.98;76.05;100714.34;5091706;28;20025;-84
2021/12/26 02:45:36;;;;;;;10.15;4.63;;;;;;;-1.95;76.14;100716.84;5090087;28;20057;-84
2021/12/26 02:48:06;;;;;;;8.82;4.47;;;;;;;-1.94;76.31;100715.94;5095015;28;20279;-84
2021/12/26 02:50:31;;;;;;;10.35;4.70;;;;;;;-1.93;76.44;100718.47;5092407;28;20405;-84
2021/12/26 02:52:59;;;;;;;7.85;4.50;;;;;;;-1.93;76.50;100705.59;5112624;28;20450;-83
2021/12/26 02:55:25;;;;;;;6.90;4.10;;;;;;;-1.93;76.15;100718.47;5105477;28;20089;-82
2021/12/26 02:57:59;;;;;;;8.88;4.78;;;;;;;-1.93;76.01;100708.16;5091256;28;20470;-87
2021/12/26 03:00:28;;;;;;;6.32;4.10;;;;;;;-1.89;76.81;100721.84;5092135;28;20027;-84
2021/12/26 03:02:55;;;;;;;7.82;4.63;;;;;;;-1.88;76.36;100714.94;5108911;28;20071;-80
2021/12/26 03:05:25;;;;;;;6.88;4.50;;;;;;;-1.88;76.09;100714.94;5109454;28;20471;-84
2021/12/26 03:07:50;;;;;;;6.40;4.28;;;;;;;-1.87;76.41;100711.47;5111619;28;20023;-80
2021/12/26 03:10:22;;;;;;;7.13;4.45;;;;;;;-1.88;76.06;100705.47;5111783;28;20047;-80
2021/12/26 03:12:59;;;;;;;8.15;4.68;;;;;;;-1.86;76.57;100703.72;5088631;28;20036;-85
2021/12/26 03:15:27;;;;;;;12.85;4.70;;;;;;;-1.86;76.34;100708.00;5072411;28;20160;-84
2021/12/26 03:17:53;;;;;;;7.32;4.32;;;;;;;-1.86;75.52;100713.16;5091638;28;20084;-87
2021/12/26 03:20:21;;;;;;;8.70;4.50;;;;;;;-1.97;75.11;100688.50;5071716;28;20031;-85
2021/12/26 03:22:47;;;;;;;7.13;4.20;;;;;;;-1.91;75.91;100684.94;5072311;28;20496;-87
2021/12/26 03:25:20;;;;;;;8.85;4.47;;;;;;;-1.88;76.09;100684.00;5090339;28;20059;-84
2021/12/26 03:27:46;;;;;;;8.18;4.80;;;;;;;-1.95;75.51;100671.28;5090026;28;20475;-85
2021/12/26 03:30:15;;;;;;;7.30;4.38;;;;;;;-1.93;75.11;100676.38;5090935;28;20471;-84
2021/12/26 03:32:44;;;;;;;7.47;4.47;;;;;;;-1.93;75.41;100679.81;5088211;28;20036;-82
2021/12/26 03:35:10;;;;;;;7.60;4.00;;;;;;;-1.95;75.40;100688.47;5092791;28;20031;-81
2021/12/26 03:37:36;;;;;;;7.82;4.40;;;;;;;-1.96;75.17;100681.63;5110233;28;20019;-84
2021/12/26 03:40:04;;;;;;;8.25;4.72;;;;;;;-2.03;75.49;100680.91;5091928;28;20117;-85
2021/12/26 03:42:29;;;;;;;7.22;4.00;;;;;;;-2.03;74.74;100683.50;5091942;28;20070;-86
2021/12/26 03:44:54;;;;;;;8.15;4.78;;;;;;;-1.99;75.80;100694.59;5092487;28;20534;-87
2021/12/26 03:47:20;;;;;;;8.35;4.65;;;;;;;-2.03;75.90;100690.38;5091321;28;20483;-80
2021/12/26 03:49:47;;;;;;;8.30;4.78;;;;;;;-2.01;75.95;100692.03;5086318;28;20058;-85
2021/12/26 03:52:13;;;;;;;6.43;4.32;;;;;;;-2.10;75.63;100687.09;5110078;28;20023;-85
2021/12/26 03:54:38;;;;;;;6.57;4.60;;;;;;;-2.04;75.90;100699.00;5109838;28;20031;-85
2021/12/26 03:57:04;;;;;;;9.35;4.53;;;;;;;-2.09;75.14;100688.78;5111301;28;20020;-85
2021/12/26 03:59:29;;;;;;;8.00;4.82;;;;;;;-2.10;75.42;100689.69;5110802;28;20024;-84
2021/12/26 04:01:55;;;;;;;7.32;4.88;;;;;;;-2.11;76.33;100687.16;5092302;28;20023;-84
2021/12/26 04:04:21;;;;;;;6.75;4.75;;;;;;;-2.13;75.87;100684.59;5091205;28;20032;-84
2021/12/26 04:06:46;;;;;;;7.05;4.40;;;;;;;-2.17;76.29;100675.25;5086275;28;20144;-85
2021/12/26 04:09:12;;;;;;;7.53;4.57;;;;;;;-2.14;75.69;100688.06;5091777;28;20035;-87
2021/12/26 04:11:41;;;;;;;8.43;5.00;;;;;;;-2.14;76.42;100676.91;5092714;28;20072;-85
2021/12/26 04:14:07;;;;;;;6.80;4.35;;;;;;;-2.16;76.52;100682.09;5110859;28;20379;-85
2021/12/26 04:16:32;;;;;;;7.97;4.43;;;;;;;-2.19;76.39;100681.34;5091439;28;20031;-84
2021/12/26 04:18:58;;;;;;;8.02;4.55;;;;;;;-2.18;76.35;100688.19;5110464;28;20026;-80
2021/12/26 04:21:23;;;;;;;7.70;4.78;;;;;;;-2.25;76.20;100669.44;5091766;28;20028;-80
2021/12/26 04:23:48;;;;;;;7.07;4.55;;;;;;;-2.24;76.07;100679.72;5099836;28;20040;-80
2021/12/26 04:26:14;;;;;;;5.82;4.40;;;;;;;-2.28;75.81;100678.09;5084900;28;20047;-80
2021/12/26 04:28:39;;;;;;;7.25;4.22;;;;;;;-2.35;75.80;100668.00;5109775;28;20054;-82
2021/12/26 04:31:04;;;;;;;6.15;4.20;;;;;;;-2.36;76.22;100680.03;5106454;28;20032;-82
2021/12/26 04:33:30;;;;;;;7.93;4.60;;;;;;;-2.32;75.90;100673.06;5109151;28;20491;-82
2021/12/26 04:35:55;;;;;;;7.97;4.45;;;;;;;-2.38;76.19;100678.38;5080132;28;20058;-80
2021/12/26 04:38:20;;;;;;;7.15;4.70;;;;;;;-2.37;76.20;100673.19;5088378;28;20028;-85
2021/12/26 04:40:46;;;;;;;7.57;4.60;;;;;;;-2.38;76.23;100665.50;5089069;28;20031;-84
2021/12/26 04:43:15;;;;;;;8.52;4.55;;;;;;;-2.36;77.04;100668.88;5069862;28;20020;-84
2021/12/26 04:45:40;;;;;;;9.57;4.60;;;;;;;-2.39;75.63;100669.78;5070982;28;20203;-85
2021/12/26 04:48:06;;;;;;;6.45;4.05;;;;;;;-2.39;75.97;100679.25;5075002;28;20649;-84
2021/12/26 04:50:31;;;;;;;7.72;4.57;;;;;;;-2.47;76.10;100652.81;5102098;28;20081;-85
2021/12/26 04:52:58;;;;;;;8.52;4.70;;;;;;;-2.42;75.83;100663.84;5090917;28;20054;-84
2021/12/26 04:55:26;;;;;;;7.78;4.55;;;;;;;-2.46;75.68;100665.66;5090608;28;20417;-84
2021/12/26 04:57:51;;;;;;;9.23;4.65;;;;;;;-2.49;76.08;100664.88;5108605;28;20390;-84
2021/12/26 05:00:20;;;;;;;8.88;4.38;;;;;;;-2.51;75.89;100664.91;5090874;28;20031;-84
2021/12/26 05:02:49;;;;;;;6.47;4.45;;;;;;;-2.49;76.28;100667.44;5075655;28;20027;-84
2021/12/26 05:05:14;;;;;;;7.00;4.55;;;;;;;-2.50;76.20;100665.75;5091291;28;20020;-84
2021/12/26 05:07:44;;;;;;;9.68;4.57;;;;;;;-2.53;75.83;100659.78;5088297;28;20442;-84
2021/12/26 05:10:12;;;;;;;6.72;4.22;;;;;;;-2.55;76.35;100661.56;5078363;28;20152;-85
2021/12/26 05:12:39;;;;;;;6.30;4.68;;;;;;;-2.57;76.59;100657.34;5090059;28;20020;-84
2021/12/26 05:15:06;;;;;;;9.35;4.65;;;;;;;-2.56;76.60;100662.44;5110038;28;20047;-84
2021/12/26 05:17:31;;;;;;;7.55;4.65;;;;;;;-2.61;76.31;100646.25;5109292;28;20027;-84
2021/12/26 05:19:57;;;;;;;7.53;4.85;;;;;;;-2.58;76.45;100655.63;5109616;28;20412;-84
2021/12/26 05:22:22;;;;;;;7.65;4.97;;;;;;;-2.59;77.01;100654.78;5109210;28;20042;-84
2021/12/26 05:24:48;;;;;;;7.88;5.05;;;;;;;-2.60;76.65;100658.25;5091616;28;20110;-84
2021/12/26 05:27:14;;;;;;;8.30;4.97;;;;;;;-2.61;76.57;100650.56;5087745;28;20120;-84
2021/12/26 05:29:40;;;;;;;7.32;4.75;;;;;;;-2.68;77.52;100639.56;5106427;28;20027;-84
2021/12/26 05:32:06;;;;;;;6.75;4.57;;;;;;;-2.65;77.14;100647.22;5091443;28;20028;-84
2021/12/26 05:34:31;;;;;;;8.48;4.35;;;;;;;-2.64;77.12;100651.47;5090569;28;20560;-84
2021/12/26 05:36:56;;;;;;;7.93;4.95;;;;;;;-2.65;76.94;100644.63;5109338;28;20462;-84
2021/12/26 05:39:22;;;;;;;8.73;4.93;;;;;;;-2.65;77.63;100642.06;5089658;28;20020;-84
2021/12/26 05:41:47;;;;;;;7.93;4.93;;;;;;;-2.67;77.45;100641.25;5090543;28;20348;-84
2021/12/26 05:44:12;;;;;;;7.80;4.93;;;;;;;-2.72;77.04;100632.78;5086860;28;20424;-84
2021/12/26 05:46:38;;;;;;;9.95;4.80;;;;;;;-2.72;77.70;100631.94;5087717;28;20410;-84
2021/12/26 05:49:04;;;;;;;7.93;4.90;;;;;;;-2.74;77.07;100631.97;5082571;28;20035;-84
2021/12/26 05:51:29;;;;;;;8.98;4.85;;;;;;;-2.72;77.85;100637.09;5108526;28;20028;-84
2021/12/26 05:53:55;;;;;;;7.07;4.70;;;;;;;-2.75;77.47;100632.88;5089856;28;20045;-84
2021/12/26 05:56:20;;;;;;;10.38;4.70;;;;;;;-2.77;77.65;100626.91;5092114;28;20131;-84
2021/12/26 05:58:46;;;;;;;9.25;4.65;;;;;;;-2.76;77.76;100626.03;5112514;28;20019;-84
2021/12/26 06:01:14;;;;;;;6.28;4.45;;;;;;;-2.77;77.81;100623.47;5085063;28;20028;-84
2021/12/26 06:03:40;;;;;;;8.75;4.80;;;;;;;-2.84;77.06;100617.59;5093736;28;20081;-84
2021/12/26 06:06:06;;;;;;;11.07;5.18;;;;;;;-2.86;77.24;100614.22;5093833;28;20023;-84
2021/12/26 06:08:32;;;;;;;7.75;4.85;;;;;;;-2.80;78.54;100624.41;5092710;28;20043;-84
2021/12/26 06:10:57;;;;;;;8.60;5.10;;;;;;;-2.83;78.16;100621.88;5112892;28;20027;-84
2021/12/26 06:13:23;;;;;;;6.18;4.57;;;;;;;-2.84;77.81;100620.19;5112222;28;20027;-84
2021/12/26 06:15:48;;;;;;;6.85;4.80;;;;;;;-2.85;77.65;100624.47;5093736;28;20081;-84
2021/12/26 06:18:14;;;;;;;8.43;4.88;;;;;;;-2.85;77.40;100618.47;5088314;28;20123;-84
2021/12/26 06:20:39;;;;;;;5.85;4.65;;;;;;;-2.87;77.41;100620.25;5094900;28;20028;-84
2021/12/26 06:23:05;;;;;;;9.05;5.07;;;;;;;-2.90;77.91;100620.31;5093817;28;20044;-83
2021/12/26 06:25:31;;;;;;;7.43;5.03;;;;;;;-2.90;77.59;100630.63;5094215;28;20432;-84
2021/12/26 06:27:57;;;;;;;9.07;5.35;;;;;;;-2.92;77.50;100629.81;5094424;28;20043;-84
2021/12/26 06:30:22;;;;;;;10.20;5.53;;;;;;;-2.96;78.08;100621.31;5093379;28;20051;-84
2021/12/26 06:32:48;;;;;;;10.05;5.30;;;;;;;-2.94;77.85;100629.84;5112725;28;20387;-84
2021/12/26 06:35:13;;;;;;;7.25;4.72;;;;;;;-2.94;78.52;100635.00;5111470;28;20479;-84
2021/12/26 06:37:40;;;;;;;8.20;5.15;;;;;;;-3.01;78.45;100620.56;5107170;28;20352;-83
2021/12/26 06:40:08;;;;;;;8.80;5.57;;;;;;;-2.95;78.45;100630.72;5112726;28;20030;-84
2021/12/26 06:42:40;;;;;;;5.82;4.82;;;;;;;-2.98;78.15;100629.94;5111577;28;20494;-83
2021/12/26 06:45:06;;;;;;;8.95;5.32;;;;;;;-2.96;78.45;100633.34;5094019;28;20870;-84
2021/12/26 06:47:31;;;;;;;7.95;5.10;;;;;;;-2.99;78.46;100638.53;5111653;28;20308;-83
2021/12/26 06:49:56;;;;;;;8.35;4.90;;;;;;;-3.01;77.92;100636.00;5093066;28;20023;-83
2021/12/26 06:52:22;;;;;;;8.65;5.00;;;;;;;-2.99;78.48;100639.41;5105312;28;20392;-83
2021/12/26 06:54:48;;;;;;;7.75;5.20;;;;;;;-2.99;77.99;100633.41;5093008;28;20023;-82
2021/12/26 06:57:14;;;;;;;8.13;5.20;;;;;;;-3.00;78.73;100629.97;5092295;28;20487;-83
2021/12/26 06:59:40;;;;;;;10.95;5.60;;;;;;;-2.99;78.59;100628.25;5111290;28;20030;-83
2021/12/26 07:02:06;;;;;;;8.40;5.72;;;;;;;-3.00;78.33;100627.41;5111158;28;20015;-84
2021/12/26 07:04:31;;;;;;;8.38;5.55;;;;;;;-3.02;78.53;100618.88;5110281;28;20084;-83
2021/12/26 07:06:56;;;;;;;13.77;6.03;;;;;;;-3.03;78.52;100627.47;5110693;28;20031;-83
2021/12/26 07:09:22;;;;;;;11.85;5.72;;;;;;;-3.02;78.69;100620.59;5081722;28;20060;-84
2021/12/26 07:11:48;;;;;;;9.88;5.45;;;;;;;-3.11;78.77;100610.50;5090226;28;20426;-83
2021/12/26 07:14:13;;;;;;;9.93;5.80;;;;;;;-3.03;78.78;100629.19;5085917;28;20106;-83
2021/12/26 07:16:39;;;;;;;8.57;5.68;;;;;;;-3.04;78.92;100630.94;5092376;28;20027;-83
2021/12/26 07:19:05;;;;;;;9.70;6.10;;;;;;;-3.05;78.90;100625.81;5110409;28;20027;-84
2021/12/26 07:21:30;;;;;;;7.38;5.03;;;;;;;-3.06;79.05;100622.41;5110337;28;20024;-83
2021/12/26 07:23:56;;;;;;;9.10;5.47;;;;;;;-3.04;79.06;100625.78;5111370;28;20487;-83
2021/12/26 07:26:24;;;;;;;8.68;5.57;;;;;;;-3.04;79.06;100633.50;5084556;28;20039;-83
2021/12/26 07:28:49;;;;;;;9.57;5.47;;;;;;;-3.03;79.10;100626.63;5091276;28;20518;-83
2021/12/26 07:31:15;;;;;;;10.55;5.57;;;;;;;-3.07;78.97;100630.16;5091095;28;20034;-84
2021/12/26 07:33:41;;;;;;;7.72;5.38;;;;;;;-3.06;78.97;100624.13;5072282;28;20020;-83
2021/12/26 07:36:06;;;;;;;10.30;5.70;;;;;;;-3.06;79.33;100617.25;5073038;28;20024;-84
2021/12/26 07:38:32;;;;;;;9.77;5.88;;;;;;;-3.07;79.19;100619.84;5090779;28;20023;-83
2021/12/26 07:40:57;;;;;;;9.63;6.00;;;;;;;-3.07;79.40;100617.28;5072266;28;20506;-83
2021/12/26 07:43:23;;;;;;;8.70;5.50;;;;;;;-3.06;79.26;100618.97;5085144;28;20063;-83
2021/12/26 07:45:48;;;;;;;12.98;5.80;;;;;;;-3.07;79.70;100619.84;5090620;28;20024;-83
2021/12/26 07:48:13;;;;;;;10.00;5.97;;;;;;;-3.07;79.91;100622.44;5096409;28;20011;-83
2021/12/26 07:50:39;;;;;;;10.27;6.53;;;;;;;-3.08;79.67;100621.59;5092967;28;20554;-84
2021/12/26 07:53:09;;;;;;;10.05;6.10;;;;;;;-3.08;79.86;100618.16;5092094;28;20023;-83
2021/12/26 07:55:35;;;;;;;11.48;6.13;;;;;;;-3.10;79.81;100612.22;5091554;28;20024;-83
2021/12/26 07:58:02;;;;;;;11.68;6.10;;;;;;;-3.13;79.59;100623.41;5091746;28;20023;-84
2021/12/26 08:00:28;;;;;;;12.50;7.05;;;;;;;-3.08;80.17;100625.88;5100584;28;20031;-83
2021/12/26 08:02:55;;;;;;;11.80;6.82;;;;;;;-3.07;80.16;100631.00;5110278;28;20030;-83
2021/12/26 08:05:21;;;;;;;9.93;6.30;;;;;;;-3.06;80.33;100635.25;5109469;28;20137;-83
2021/12/26 08:07:46;;;;;;;11.95;7.43;;;;;;;-3.08;80.43;100642.16;5109254;28;20031;-83
2021/12/26 08:10:12;;;;;;;10.70;7.45;;;;;;;-3.05;80.78;100633.53;5109744;28;20037;-83
2021/12/26 08:12:38;;;;;;;14.48;9.10;;;;;;;-3.05;80.66;100628.38;5109632;28;20111;-83
2021/12/26 08:15:05;;;;;;;13.15;7.40;;;;;;;-3.02;81.35;100634.31;5107975;28;20102;-83
2021/12/26 08:17:32;;;;;;;12.57;7.20;;;;;;;-3.00;81.16;100642.84;5104874;28;20400;-83
2021/12/26 08:19:58;;;;;;;12.05;7.20;;;;;;;-2.98;81.42;100635.09;5091273;28;20104;-83
2021/12/26 08:22:24;;;;;;;11.40;6.72;;;;;;;-2.95;81.11;100645.31;5109074;28;20039;-83
2021/12/26 08:24:49;;;;;;;11.75;7.38;;;;;;;-2.93;81.43;100633.25;5110019;28;20026;-83
2021/12/26 08:27:14;;;;;;;11.70;7.05;;;;;;;-2.92;81.40;100637.53;5109866;28;20111;-83
2021/12/26 08:29:44;;;;;;;11.05;6.97;;;;;;;-2.88;81.82;100636.56;5109835;28;20028;-83
2021/12/26 08:32:14;;;;;;;12.18;7.40;;;;;;;-2.87;81.54;100630.53;5104813;28;20081;-83
2021/12/26 08:34:41;;;;;;;10.63;7.60;;;;;;;-2.83;81.72;100637.31;5110874;28;20034;-83
2021/12/26 08:37:06;;;;;;;11.68;7.30;;;;;;;-2.81;81.85;100632.97;5110141;28;20024;-83
2021/12/26 08:39:35;;;;;;;13.05;7.63;;;;;;;-2.77;82.06;100623.47;5110365;28;20391;-83
2021/12/26 08:42:01;;;;;;;11.68;7.50;;;;;;;-2.75;81.89;100622.56;5092251;28;20062;-83
2021/12/26 08:44:27;;;;;;;10.93;6.93;;;;;;;-2.72;82.18;100622.50;5090754;28;20028;-84
2021/12/26 08:46:53;;;;;;;14.38;7.60;;;;;;;-2.69;82.27;100622.41;5092354;28;20536;-83
2021/12/26 08:49:19;;;;;;;12.70;7.00;;;;;;;-2.64;82.13;100624.88;5085868;28;20031;-84
2021/12/26 08:51:45;;;;;;;14.38;8.20;;;;;;;-2.62;81.86;100618.81;5092077;28;20028;-84
2021/12/26 08:54:12;;;;;;;12.48;8.18;;;;;;;-2.56;81.92;100625.53;5092448;28;20031;-83
2021/12/26 08:56:38;;;;;;;15.10;7.35;;;;;;;-2.53;82.17;100631.47;5091449;28;20097;-84
2021/12/26 08:59:04;;;;;;;14.48;8.32;;;;;;;-2.52;82.17;100628.00;5109808;28;20530;-84
2021/12/26 09:01:30;;;;;;;10.60;7.35;;;;;;;-2.50;82.81;100617.66;5109313;28;20024;-83
2021/12/26 09:03:55;;;;;;;11.35;7.20;;;;;;;-2.43;82.31;100618.34;5108993;28;20031;-83
2021/12/26 09:06:21;;;;;;;13.90;7.88;;;;;;;-2.38;82.38;100621.69;5105811;28;20030;-83
2021/12/26 09:08:46;;;;;;;11.68;7.95;;;;;;;-2.36;82.48;100602.75;5106886;28;20059;-83
2021/12/26 09:11:11;;;;;;;12.35;7.38;;;;;;;-2.31;82.65;100613.78;5090713;28;20472;-83
2021/12/26 09:13:37;;;;;;;12.55;7.78;;;;;;;-2.27;82.66;100609.38;5109242;28;20035;-83
2021/12/26 09:16:03;;;;;;;13.20;7.90;;;;;;;-2.26;82.55;100601.63;5109524;28;20023;-83
2021/12/26 09:18:28;;;;;;;13.13;8.10;;;;;;;-2.18;82.61;100600.56;5108270;28;20421;-83
2021/12/26 09:20:54;;;;;;;13.10;7.78;;;;;;;-2.16;82.62;100607.38;5109351;28;20031;-84
2021/12/26 09:23:19;;;;;;;10.45;6.93;;;;;;;-2.11;82.49;100615.81;5090475;28;20043;-83
2021/12/26 09:25:45;;;;;;;11.90;7.63;;;;;;;-2.07;82.34;100616.59;5101304;28;20024;-83
2021/12/26 09:28:10;;;;;;;12.02;8.23;;;;;;;-2.04;82.66;100619.09;5070991;28;20051;-83
2021/12/26 09:30:36;;;;;;;15.20;8.07;;;;;;;-1.99;82.41;100614.69;5072779;28;20548;-83
2021/12/26 09:33:02;;;;;;;13.80;7.80;;;;;;;-1.96;82.28;100607.72;5074096;28;20035;-83
2021/12/26 09:35:51;;;;;;;14.18;8.35;;;;;;;-1.95;82.42;100611.97;5092513;28;20032;-83
2021/12/26 09:38:17;;;;;;;13.88;7.95;;;;;;;-1.90;82.26;100615.28;5076038;28;20127;-83
2021/12/26 09:40:43;;;;;;;13.38;8.02;;;;;;;-1.88;82.90;100612.66;5092236;28;20034;-83
2021/12/26 09:43:12;;;;;;;13.73;8.32;;;;;;;-1.82;82.88;100616.81;5104017;28;20024;-83
2021/12/26 09:45:37;;;;;;;12.82;8.40;;;;;;;-1.80;82.67;100621.03;5094445;28;20028;-83
2021/12/26 09:48:16;;;;;;;13.80;8.00;;;;;;;-1.75;82.82;100623.47;5113839;28;20020;-83
2021/12/26 09:50:42;;;;;;;13.20;8.52;;;;;;;-1.72;83.50;100613.09;5094967;28;20066;-83
2021/12/26 09:53:08;;;;;;;11.23;7.90;;;;;;;-1.62;82.82;100624.84;5112887;28;20437;-83
2021/12/26 09:55:39;;;;;;;13.25;9.23;;;;;;;-1.58;83.24;100622.16;5113142;28;20023;-83
2021/12/26 09:58:05;;;;;;;14.43;8.93;;;;;;;-1.58;82.82;100598.94;5094158;28;20550;-83
2021/12/26 10:00:37;;;;;;;13.80;8.32;;;;;;;-1.50;83.11;100603.88;5102834;28;20629;-83
2021/12/26 10:03:14;;;;;;;;;;;;;;;-1.41;82.61;100602.75;5095596;28;20023;-84
2021/12/26 10:06:10;;;;;;;14.80;8.32;;;;;;;-1.38;82.82;100600.94;5095121;28;20109;-83
2021/12/26 10:08:58;;;;;;;12.77;8.65;;;;;;;-1.34;82.88;100597.38;5112115;28;20070;-83
2021/12/26 10:11:29;;;;;;;15.13;9.15;;;;;;;-1.29;83.02;100592.91;5112619;28;20480;-84
2021/12/26 10:14:17;;;;;;;16.25;8.73;;;;;;;-1.26;83.11;100585.09;5111964;28;20483;-83
2021/12/26 10:16:47;;;;;;;17.08;9.25;;;;;;;-1.20;83.28;100583.22;5104039;28;20031;-83
2021/12/26 10:19:13;;;;;;;14.07;9.38;;;;;;;-1.17;83.23;100575.41;5093845;28;20118;-83
2021/12/26 10:21:57;;;;;;;12.25;8.85;;;;;;;-1.15;82.73;100571.03;5111842;28;20028;-83
2021/12/26 10:24:31;;;;;;;16.02;9.98;;;;;;;-1.10;83.25;100577.75;5111935;28;20050;-83
2021/12/26 10:27:04;;;;;;;14.73;9.30;;;;;;;-1.06;82.75;100574.19;5094048;28;20088;-83
2021/12/26 10:29:39;;;;;;;14.88;9.43;;;;;;;-1.01;83.45;100571.44;5111267;28;20039;-83
2021/12/26 10:32:04;;;;;;;14.23;9.32;;;;;;;-0.97;83.03;100573.03;5105529;28;20035;-83
2021/12/26 10:34:35;;;;;;;15.63;9.88;;;;;;;-0.93;82.73;100563.47;5093379;28;20039;-83
2021/12/26 10:37:03;;;;;;;15.15;9.68;;;;;;;-0.92;83.11;100566.00;5111238;28;20024;-83
2021/12/26 10:39:47;;;;;;;17.65;9.55;;;;;;;-0.87;82.79;100564.09;5111355;28;20023;-83
2021/12/26 10:42:16;;;;;;;27.55;21.42;;;;;;;-0.85;82.70;100557.16;5109825;28;20057;-83
2021/12/26 10:44:47;;;;;;;15.25;10.23;;;;;;;-0.79;83.29;100556.97;5111803;28;20102;-84
2021/12/26 10:47:26;;;;;;;14.80;10.00;;;;;;;-0.77;83.06;100552.63;5092844;28;20023;-83
2021/12/26 10:49:57;;;;;;;15.45;9.45;;;;;;;-0.72;82.99;100557.63;5105002;28;20051;-84
2021/12/26 10:52:33;;;;;;;14.90;9.68;;;;;;;-0.71;82.29;100549.81;5110980;28;20027;-84
2021/12/26 10:55:04;;;;;;;18.92;10.32;;;;;;;-0.67;82.98;100551.41;5093449;28;20020;-84
2021/12/26 10:57:34;;;;;;;14.10;9.43;;;;;;;-0.63;83.10;100557.31;5110287;28;20026;-84
2021/12/26 11:00:10;;;;;;;15.80;10.55;;;;;;;-0.59;83.19;100546.00;5111567;28;20027;-84
2021/12/26 11:02:37;;;;;;;15.20;10.05;;;;;;;-0.55;82.98;100538.97;5111083;28;20122;-83
2021/12/26 11:05:07;;;;;;;16.10;10.30;;;;;;;-0.52;83.40;100533.72;5110955;28;20027;-84
2021/12/26 11:07:42;;;;;;;16.75;10.82;;;;;;;-0.47;82.87;100521.47;5086782;28;20028;-84
2021/12/26 11:10:14;;;;;;;15.23;10.07;;;;;;;-0.43;82.64;100525.63;5111561;28;20116;-83
2021/12/26 11:12:43;;;;;;;15.57;10.50;;;;;;;-0.43;82.81;100526.47;5093479;28;20550;-84
2021/12/26 11:15:10;;;;;;;16.63;10.93;;;;;;;-0.38;83.20;100534.09;5112219;28;20035;-83
2021/12/26 11:17:53;;;;;;;16.52;10.30;;;;;;;-0.34;83.30;100527.94;5110884;28;20152;-82
2021/12/26 11:20:35;;;;;;;16.42;10.27;;;;;;;-0.29;82.78;100530.34;5111944;28;20373;-83
2021/12/26 11:23:09;;;;;;;17.25;10.98;;;;;;;-0.28;83.22;100521.72;5110242;28;20050;-83
2021/12/26 11:25:50;;;;;;;16.10;10.63;;;;;;;-0.26;83.20;100525.09;5091158;28;20039;-84
2021/12/26 11:28:22;;;;;;;16.45;11.23;;;;;;;-0.23;82.95;100533.56;5091500;28;20031;-84